sensor_id;sensor_type;location;lat;lon;timestamp;noise_LAeq;noise_LA_min;noise_LA_max;noise_LA01;noise_LA95
46393;Laerm;32099;53.588;10.176;2023-10-19T00:00:24;52.03;48.05;59.54;;
46393;Laerm;32099;53.588;10.176;2023-10-19T00:02:50;59.09;48.87;80.43;;
46393;Laerm;32099;53.588;10.176;2023-10-19T00:05:18;50.94;47.02;72.47;;
46393;Laerm;32099;53.588;10.176;2023-10-19T00:07:44;52.08;48.73;56.56;;
46393;Laerm;32099;53.588;10.176;2023-10-19T00:10:10;57.64;46.94;78.95;;
46393;Laerm;32099;53.588;10.176;2023-10-19T00:12:36;51.53;46.77;74.55;;
46393;Laerm;32099;53.588;10.176;2023-10-19T00:15:01;52.97;48.23;72.50;;
46393;Laerm;32099;53.588;10.176;2023-10-19T00:17:27;49.63;46.52;53.95;;
46393;Laerm;32099;53.588;10.176;2023-10-19T00:19:52;59.40;48.30;85.65;;
46393;Laerm;32099;53.588;10.176;2023-10-19T00:22:21;51.71;47.18;57.43;;
46393;Laerm;32099;53.588;10.176;2023-10-19T00:24:46;52.06;46.66;65.90;;
46393;Laerm;32099;53.588;10.176;2023-10-19T00:27:12;49.63;46.85;55.24;;
46393;Laerm;32099;53.588;10.176;2023-10-19T00:29:38;51.94;47.71;59.15;;
46393;Laerm;32099;53.588;10.176;2023-10-19T00:32:04;50.34;45.99;56.94;;
46393;Laerm;32099;53.588;10.176;2023-10-19T00:34:30;48.69;46.34;53.84;;
46393;Laerm;32099;53.588;10.176;2023-10-19T00:36:56;52.19;47.96;71.39;;
46393;Laerm;32099;53.588;10.176;2023-10-19T00:39:25;48.54;46.27;52.81;;
46393;Laerm;32099;53.588;10.176;2023-10-19T00:41:51;50.37;45.50;56.22;;
46393;Laerm;32099;53.588;10.176;2023-10-19T00:44:17;49.76;45.09;61.94;;
46393;Laerm;32099;53.588;10.176;2023-10-19T00:46:43;59.33;46.86;89.12;;
46393;Laerm;32099;53.588;10.176;2023-10-19T00:49:10;50.12;47.14;57.54;;
46393;Laerm;32099;53.588;10.176;2023-10-19T00:51:39;51.31;47.56;61.55;;
46393;Laerm;32099;53.588;10.176;2023-10-19T00:54:09;54.90;47.67;81.99;;
46393;Laerm;32099;53.588;10.176;2023-10-19T00:56:42;52.68;46.24;75.89;;
46393;Laerm;32099;53.588;10.176;2023-10-19T00:59:08;50.39;47.21;55.45;;
46393;Laerm;32099;53.588;10.176;2023-10-19T01:01:34;49.55;46.29;59.01;;
46393;Laerm;32099;53.588;10.176;2023-10-19T01:04:00;48.79;46.57;52.54;;
46393;Laerm;32099;53.588;10.176;2023-10-19T01:06:26;56.24;47.81;84.84;;
46393;Laerm;32099;53.588;10.176;2023-10-19T01:08:52;51.40;47.56;71.61;;
46393;Laerm;32099;53.588;10.176;2023-10-19T01:11:20;50.32;47.46;59.52;;
46393;Laerm;32099;53.588;10.176;2023-10-19T01:13:48;53.45;47.76;75.38;;
46393;Laerm;32099;53.588;10.176;2023-10-19T01:16:15;56.38;46.09;84.76;;
46393;Laerm;32099;53.588;10.176;2023-10-19T01:18:40;49.48;46.44;55.13;;
46393;Laerm;32099;53.588;10.176;2023-10-19T01:21:06;49.77;48.03;53.44;;
46393;Laerm;32099;53.588;10.176;2023-10-19T01:23:34;51.43;47.11;63.00;;
46393;Laerm;32099;53.588;10.176;2023-10-19T01:26:00;53.76;47.98;72.04;;
46393;Laerm;32099;53.588;10.176;2023-10-19T01:28:27;51.58;47.95;57.79;;
46393;Laerm;32099;53.588;10.176;2023-10-19T01:30:53;55.01;48.26;80.66;;
46393;Laerm;32099;53.588;10.176;2023-10-19T01:33:19;50.11;46.76;54.75;;
46393;Laerm;32099;53.588;10.176;2023-10-19T01:35:45;50.44;47.81;54.50;;
46393;Laerm;32099;53.588;10.176;2023-10-19T01:38:11;50.50;47.74;61.63;;
46393;Laerm;32099;53.588;10.176;2023-10-19T01:40:40;50.73;47.56;55.58;;
46393;Laerm;32099;53.588;10.176;2023-10-19T01:43:06;50.37;47.14;63.73;;
46393;Laerm;32099;53.588;10.176;2023-10-19T01:45:32;53.75;48.23;77.72;;
46393;Laerm;32099;53.588;10.176;2023-10-19T01:47:58;53.38;48.75;75.11;;
46393;Laerm;32099;53.588;10.176;2023-10-19T01:50:24;51.39;48.54;57.05;;
46393;Laerm;32099;53.588;10.176;2023-10-19T01:52:49;51.06;46.73;58.71;;
46393;Laerm;32099;53.588;10.176;2023-10-19T01:55:15;51.37;47.47;69.22;;
46393;Laerm;32099;53.588;10.176;2023-10-19T01:57:44;51.80;47.67;57.86;;
46393;Laerm;32099;53.588;10.176;2023-10-19T02:00:11;50.87;48.24;54.32;;
46393;Laerm;32099;53.588;10.176;2023-10-19T02:02:37;53.45;48.59;75.46;;
46393;Laerm;32099;53.588;10.176;2023-10-19T02:05:04;53.02;48.71;73.51;;
46393;Laerm;32099;53.588;10.176;2023-10-19T02:07:30;56.53;48.09;75.41;;
46393;Laerm;32099;53.588;10.176;2023-10-19T02:09:55;55.46;48.59;82.61;;
46393;Laerm;32099;53.588;10.176;2023-10-19T02:12:21;52.87;48.70;62.33;;
46393;Laerm;32099;53.588;10.176;2023-10-19T02:14:49;54.37;50.45;78.00;;
46393;Laerm;32099;53.588;10.176;2023-10-19T02:17:15;54.01;49.26;68.64;;
46393;Laerm;32099;53.588;10.176;2023-10-19T02:19:41;51.83;47.17;67.25;;
46393;Laerm;32099;53.588;10.176;2023-10-19T02:22:07;50.64;46.47;73.62;;
46393;Laerm;32099;53.588;10.176;2023-10-19T02:24:33;51.36;47.40;55.74;;
46393;Laerm;32099;53.588;10.176;2023-10-19T02:26:59;50.47;46.79;60.80;;
46393;Laerm;32099;53.588;10.176;2023-10-19T02:29:24;52.24;47.78;74.39;;
46393;Laerm;32099;53.588;10.176;2023-10-19T02:31:53;56.99;49.19;84.29;;
46393;Laerm;32099;53.588;10.176;2023-10-19T02:34:18;51.16;48.40;67.57;;
46393;Laerm;32099;53.588;10.176;2023-10-19T02:36:45;52.71;48.86;71.33;;
46393;Laerm;32099;53.588;10.176;2023-10-19T02:39:13;53.13;48.16;65.53;;
46393;Laerm;32099;53.588;10.176;2023-10-19T02:41:39;53.62;49.06;67.59;;
46393;Laerm;32099;53.588;10.176;2023-10-19T02:44:09;53.61;48.76;72.44;;
46393;Laerm;32099;53.588;10.176;2023-10-19T02:46:35;52.72;48.81;66.29;;
46393;Laerm;32099;53.588;10.176;2023-10-19T02:49:04;55.64;47.93;83.95;;
46393;Laerm;32099;53.588;10.176;2023-10-19T02:51:30;51.14;47.44;56.37;;
46393;Laerm;32099;53.588;10.176;2023-10-19T02:53:56;51.54;47.66;59.72;;
46393;Laerm;32099;53.588;10.176;2023-10-19T02:56:22;50.91;47.98;58.04;;
46393;Laerm;32099;53.588;10.176;2023-10-19T02:58:48;51.82;48.32;74.83;;
46393;Laerm;32099;53.588;10.176;2023-10-19T03:01:15;50.99;48.45;57.95;;
46393;Laerm;32099;53.588;10.176;2023-10-19T03:03:41;58.68;49.58;85.49;;
46393;Laerm;32099;53.588;10.176;2023-10-19T03:06:09;53.54;48.98;75.68;;
46393;Laerm;32099;53.588;10.176;2023-10-19T03:08:35;58.27;48.13;76.91;;
46393;Laerm;32099;53.588;10.176;2023-10-19T03:11:01;53.49;48.54;69.01;;
46393;Laerm;32099;53.588;10.176;2023-10-19T03:13:27;55.30;48.68;70.75;;
46393;Laerm;32099;53.588;10.176;2023-10-19T03:15:53;55.46;50.05;69.81;;
46393;Laerm;32099;53.588;10.176;2023-10-19T03:18:19;51.86;49.48;56.70;;
46393;Laerm;32099;53.588;10.176;2023-10-19T03:20:45;50.33;48.25;53.45;;
46393;Laerm;32099;53.588;10.176;2023-10-19T03:23:13;59.01;49.68;83.97;;
46393;Laerm;32099;53.588;10.176;2023-10-19T03:25:39;51.90;48.58;60.69;;
46393;Laerm;32099;53.588;10.176;2023-10-19T03:28:05;52.75;48.80;70.18;;
46393;Laerm;32099;53.588;10.176;2023-10-19T03:30:31;55.73;49.26;81.56;;
46393;Laerm;32099;53.588;10.176;2023-10-19T03:32:56;51.11;48.78;55.75;;
46393;Laerm;32099;53.588;10.176;2023-10-19T03:35:22;51.69;48.99;57.72;;
46393;Laerm;32099;53.588;10.176;2023-10-19T03:37:47;55.65;48.90;74.73;;
46393;Laerm;32099;53.588;10.176;2023-10-19T03:40:16;58.08;49.28;83.27;;
46393;Laerm;32099;53.588;10.176;2023-10-19T03:42:42;52.01;49.01;57.01;;
46393;Laerm;32099;53.588;10.176;2023-10-19T03:45:08;54.05;49.82;74.69;;
46393;Laerm;32099;53.588;10.176;2023-10-19T03:47:34;55.06;48.94;75.25;;
46393;Laerm;32099;53.588;10.176;2023-10-19T03:50:02;58.41;50.23;77.87;;
46393;Laerm;32099;53.588;10.176;2023-10-19T03:52:28;60.41;50.71;81.70;;
46393;Laerm;32099;53.588;10.176;2023-10-19T03:54:54;58.02;50.09;75.86;;
46393;Laerm;32099;53.588;10.176;2023-10-19T03:57:22;57.29;52.60;63.24;;
46393;Laerm;32099;53.588;10.176;2023-10-19T03:59:48;59.33;53.54;66.32;;
46393;Laerm;32099;53.588;10.176;2023-10-19T04:02:14;57.19;53.99;61.48;;
46393;Laerm;32099;53.588;10.176;2023-10-19T04:04:40;56.27;53.08;60.90;;
46393;Laerm;32099;53.588;10.176;2023-10-19T04:07:06;61.27;52.65;79.54;;
46393;Laerm;32099;53.588;10.176;2023-10-19T04:09:31;58.57;53.63;75.16;;
46393;Laerm;32099;53.588;10.176;2023-10-19T04:11:57;56.64;53.05;77.19;;
46393;Laerm;32099;53.588;10.176;2023-10-19T04:14:26;58.39;54.03;72.64;;
46393;Laerm;32099;53.588;10.176;2023-10-19T04:16:52;58.19;54.19;67.69;;
46393;Laerm;32099;53.588;10.176;2023-10-19T04:19:18;57.72;52.30;72.99;;
46393;Laerm;32099;53.588;10.176;2023-10-19T04:21:44;55.80;52.42;66.27;;
46393;Laerm;32099;53.588;10.176;2023-10-19T04:24:10;57.11;54.31;78.09;;
46393;Laerm;32099;53.588;10.176;2023-10-19T04:26:35;63.23;52.77;91.92;;
46393;Laerm;32099;53.588;10.176;2023-10-19T04:29:01;59.22;54.25;84.32;;
46393;Laerm;32099;53.588;10.176;2023-10-19T04:31:30;59.17;53.91;73.41;;
46393;Laerm;32099;53.588;10.176;2023-10-19T04:33:55;62.09;53.58;77.51;;
46393;Laerm;32099;53.588;10.176;2023-10-19T04:36:21;55.88;53.96;61.76;;
46393;Laerm;32099;53.588;10.176;2023-10-19T04:38:47;59.65;54.94;77.26;;
46393;Laerm;32099;53.588;10.176;2023-10-19T04:41:12;62.81;54.96;81.68;;
46393;Laerm;32099;53.588;10.176;2023-10-19T04:43:39;58.59;55.36;68.85;;
46393;Laerm;32099;53.588;10.176;2023-10-19T04:46:07;61.27;56.22;72.48;;
46393;Laerm;32099;53.588;10.176;2023-10-19T04:48:39;65.41;56.67;89.95;;
46393;Laerm;32099;53.588;10.176;2023-10-19T04:51:04;62.23;55.70;81.04;;
46393;Laerm;32099;53.588;10.176;2023-10-19T04:53:31;59.54;54.38;75.24;;
46393;Laerm;32099;53.588;10.176;2023-10-19T04:55:56;59.25;55.28;73.17;;
46393;Laerm;32099;53.588;10.176;2023-10-19T04:58:22;59.57;57.02;64.97;;
46393;Laerm;32099;53.588;10.176;2023-10-19T05:00:47;61.17;55.90;77.11;;
46393;Laerm;32099;53.588;10.176;2023-10-19T05:03:13;60.95;55.06;79.71;;
46393;Laerm;32099;53.588;10.176;2023-10-19T05:05:41;58.46;54.36;70.28;;
46393;Laerm;32099;53.588;10.176;2023-10-19T05:08:07;58.53;56.14;63.69;;
46393;Laerm;32099;53.588;10.176;2023-10-19T05:10:33;60.65;55.10;77.88;;
46393;Laerm;32099;53.588;10.176;2023-10-19T05:12:58;57.81;54.43;73.92;;
46393;Laerm;32099;53.588;10.176;2023-10-19T05:15:24;62.10;54.23;80.75;;
46393;Laerm;32099;53.588;10.176;2023-10-19T05:17:50;57.91;54.93;80.22;;
46393;Laerm;32099;53.588;10.176;2023-10-19T05:20:16;62.36;54.88;80.18;;
46393;Laerm;32099;53.588;10.176;2023-10-19T05:22:44;58.18;54.98;65.90;;
46393;Laerm;32099;53.588;10.176;2023-10-19T05:25:10;65.25;54.46;80.44;;
46393;Laerm;32099;53.588;10.176;2023-10-19T05:27:37;57.77;54.13;66.09;;
46393;Laerm;32099;53.588;10.176;2023-10-19T05:30:04;58.16;54.33;67.48;;
46393;Laerm;32099;53.588;10.176;2023-10-19T05:32:30;60.74;54.70;76.57;;
46393;Laerm;32099;53.588;10.176;2023-10-19T05:34:56;59.13;54.95;69.84;;
46393;Laerm;32099;53.588;10.176;2023-10-19T05:37:22;58.64;54.42;78.51;;
46393;Laerm;32099;53.588;10.176;2023-10-19T05:39:50;57.90;54.56;78.93;;
46393;Laerm;32099;53.588;10.176;2023-10-19T05:42:16;61.77;55.07;78.50;;
46393;Laerm;32099;53.588;10.176;2023-10-19T05:44:42;61.76;55.12;78.31;;
46393;Laerm;32099;53.588;10.176;2023-10-19T05:47:07;60.96;56.01;73.20;;
46393;Laerm;32099;53.588;10.176;2023-10-19T05:49:33;61.16;55.71;77.63;;
46393;Laerm;32099;53.588;10.176;2023-10-19T05:51:59;63.54;55.41;82.81;;
46393;Laerm;32099;53.588;10.176;2023-10-19T05:54:24;61.49;54.66;87.01;;
46393;Laerm;32099;53.588;10.176;2023-10-19T05:56:53;63.70;55.23;85.87;;
46393;Laerm;32099;53.588;10.176;2023-10-19T05:59:18;63.46;55.56;81.97;;
46393;Laerm;32099;53.588;10.176;2023-10-19T06:01:44;62.17;55.51;89.24;;
46393;Laerm;32099;53.588;10.176;2023-10-19T06:04:10;59.95;56.02;83.34;;
46393;Laerm;32099;53.588;10.176;2023-10-19T06:06:35;65.44;55.17;85.05;;
46393;Laerm;32099;53.588;10.176;2023-10-19T06:09:01;64.22;56.60;77.62;;
46393;Laerm;32099;53.588;10.176;2023-10-19T06:11:28;62.34;55.39;81.66;;
46393;Laerm;32099;53.588;10.176;2023-10-19T06:13:57;58.27;55.94;63.60;;
46393;Laerm;32099;53.588;10.176;2023-10-19T06:16:22;64.70;56.32;85.06;;
46393;Laerm;32099;53.588;10.176;2023-10-19T06:18:48;59.15;57.01;65.48;;
46393;Laerm;32099;53.588;10.176;2023-10-19T06:21:17;59.28;56.26;73.45;;
46393;Laerm;32099;53.588;10.176;2023-10-19T06:23:42;63.89;57.19;81.69;;
46393;Laerm;32099;53.588;10.176;2023-10-19T06:26:09;62.32;57.41;76.67;;
46393;Laerm;32099;53.588;10.176;2023-10-19T06:28:35;65.08;56.93;82.13;;
46393;Laerm;32099;53.588;10.176;2023-10-19T06:31:03;58.62;56.13;61.88;;
46393;Laerm;32099;53.588;10.176;2023-10-19T06:33:29;64.81;56.68;89.95;;
46393;Laerm;32099;53.588;10.176;2023-10-19T06:35:54;63.69;55.84;77.45;;
46393;Laerm;32099;53.588;10.176;2023-10-19T06:38:20;58.63;56.07;68.35;;
46393;Laerm;32099;53.588;10.176;2023-10-19T06:40:46;58.77;56.35;77.91;;
46393;Laerm;32099;53.588;10.176;2023-10-19T06:43:11;63.35;55.40;79.76;;
46393;Laerm;32099;53.588;10.176;2023-10-19T06:45:37;61.41;55.91;76.41;;
46393;Laerm;32099;53.588;10.176;2023-10-19T06:48:06;59.34;55.78;72.19;;
46393;Laerm;32099;53.588;10.176;2023-10-19T06:50:32;63.64;54.79;82.12;;
46393;Laerm;32099;53.588;10.176;2023-10-19T06:52:58;60.53;55.02;77.16;;
46393;Laerm;32099;53.588;10.176;2023-10-19T06:55:24;59.09;55.40;63.58;;
46393;Laerm;32099;53.588;10.176;2023-10-19T06:57:50;65.33;58.62;81.89;;
46393;Laerm;32099;53.588;10.176;2023-10-19T07:00:18;64.84;57.97;81.54;;
46393;Laerm;32099;53.588;10.176;2023-10-19T07:02:44;60.48;57.27;81.41;;
46393;Laerm;32099;53.588;10.176;2023-10-19T07:05:13;65.29;56.12;79.83;;
46393;Laerm;32099;53.588;10.176;2023-10-19T07:07:40;66.39;56.77;83.03;;
46393;Laerm;32099;53.588;10.176;2023-10-19T07:10:07;60.67;56.24;76.78;;
46393;Laerm;32099;53.588;10.176;2023-10-19T07:12:33;64.10;54.99;82.72;;
46393;Laerm;32099;53.588;10.176;2023-10-19T07:14:58;59.35;55.97;75.44;;
46393;Laerm;32099;53.588;10.176;2023-10-19T07:17:24;63.75;55.49;82.43;;
46393;Laerm;32099;53.588;10.176;2023-10-19T07:19:49;59.58;55.45;72.84;;
46393;Laerm;32099;53.588;10.176;2023-10-19T07:22:18;61.19;55.26;80.51;;
46393;Laerm;32099;53.588;10.176;2023-10-19T07:24:43;62.38;55.11;81.41;;
46393;Laerm;32099;53.588;10.176;2023-10-19T07:27:09;63.10;54.28;80.50;;
46393;Laerm;32099;53.588;10.176;2023-10-19T07:29:35;59.47;55.11;73.87;;
46393;Laerm;32099;53.588;10.176;2023-10-19T07:32:00;61.43;54.52;79.44;;
46393;Laerm;32099;53.588;10.176;2023-10-19T07:34:26;60.86;54.37;79.65;;
46393;Laerm;32099;53.588;10.176;2023-10-19T07:36:52;62.15;55.58;80.73;;
46393;Laerm;32099;53.588;10.176;2023-10-19T07:39:20;63.55;54.90;78.20;;
46393;Laerm;32099;53.588;10.176;2023-10-19T07:41:46;63.83;55.30;82.10;;
46393;Laerm;32099;53.588;10.176;2023-10-19T07:44:11;62.91;55.38;81.86;;
46393;Laerm;32099;53.588;10.176;2023-10-19T07:46:37;57.51;54.79;70.57;;
46393;Laerm;32099;53.588;10.176;2023-10-19T07:49:03;65.06;56.16;80.98;;
46393;Laerm;32099;53.588;10.176;2023-10-19T07:51:29;63.45;58.01;80.17;;
46393;Laerm;32099;53.588;10.176;2023-10-19T07:53:54;62.69;55.53;78.57;;
46393;Laerm;32099;53.588;10.176;2023-10-19T07:56:23;59.26;55.01;74.34;;
46393;Laerm;32099;53.588;10.176;2023-10-19T07:58:48;66.50;55.05;80.39;;
46393;Laerm;32099;53.588;10.176;2023-10-19T08:01:14;65.05;55.30;80.79;;
46393;Laerm;32099;53.588;10.176;2023-10-19T08:03:40;58.53;55.04;72.87;;
46393;Laerm;32099;53.588;10.176;2023-10-19T08:06:05;59.80;54.58;85.67;;
46393;Laerm;32099;53.588;10.176;2023-10-19T08:08:31;64.99;54.49;93.83;;
46393;Laerm;32099;53.588;10.176;2023-10-19T08:10:57;71.23;55.40;88.25;;
46393;Laerm;32099;53.588;10.176;2023-10-19T08:13:25;68.07;55.33;92.23;;
46393;Laerm;32099;53.588;10.176;2023-10-19T08:15:51;63.78;55.23;80.57;;
46393;Laerm;32099;53.588;10.176;2023-10-19T08:18:16;59.79;56.50;75.75;;
46393;Laerm;32099;53.588;10.176;2023-10-19T08:20:42;64.44;57.28;79.10;;
46393;Laerm;32099;53.588;10.176;2023-10-19T08:23:08;64.88;58.57;83.15;;
46393;Laerm;32099;53.588;10.176;2023-10-19T08:25:33;61.73;57.72;78.91;;
46393;Laerm;32099;53.588;10.176;2023-10-19T08:27:59;64.19;55.15;81.26;;
46393;Laerm;32099;53.588;10.176;2023-10-19T08:30:27;62.32;55.84;78.58;;
46393;Laerm;32099;53.588;10.176;2023-10-19T08:32:53;58.70;56.01;78.61;;
46393;Laerm;32099;53.588;10.176;2023-10-19T08:35:20;60.22;55.57;72.57;;
46393;Laerm;32099;53.588;10.176;2023-10-19T08:37:46;61.09;56.79;76.62;;
46393;Laerm;32099;53.588;10.176;2023-10-19T08:40:12;64.14;56.81;81.17;;
46393;Laerm;32099;53.588;10.176;2023-10-19T08:42:38;62.75;57.82;78.95;;
46393;Laerm;32099;53.588;10.176;2023-10-19T08:45:04;63.92;57.50;81.18;;
46393;Laerm;32099;53.588;10.176;2023-10-19T08:47:33;58.60;56.14;70.67;;
46393;Laerm;32099;53.588;10.176;2023-10-19T08:49:59;64.59;57.20;79.37;;
46393;Laerm;32099;53.588;10.176;2023-10-19T08:52:25;62.35;56.87;78.88;;
46393;Laerm;32099;53.588;10.176;2023-10-19T08:54:53;60.13;57.40;64.76;;
46393;Laerm;32099;53.588;10.176;2023-10-19T08:57:19;61.77;57.08;87.53;;
46393;Laerm;32099;53.588;10.176;2023-10-19T08:59:45;68.13;56.03;88.03;;
46393;Laerm;32099;53.588;10.176;2023-10-19T09:02:10;58.19;55.98;62.79;;
46393;Laerm;32099;53.588;10.176;2023-10-19T09:04:43;63.84;56.99;81.34;;
46393;Laerm;32099;53.588;10.176;2023-10-19T09:07:12;63.04;56.81;85.01;;
46393;Laerm;32099;53.588;10.176;2023-10-19T09:09:38;60.80;57.34;69.07;;
46393;Laerm;32099;53.588;10.176;2023-10-19T09:12:04;67.12;58.26;83.24;;
46393;Laerm;32099;53.588;10.176;2023-10-19T09:14:31;60.27;57.30;65.21;;
46393;Laerm;32099;53.588;10.176;2023-10-19T09:16:57;62.78;57.18;78.07;;
46393;Laerm;32099;53.588;10.176;2023-10-19T09:19:38;66.87;57.82;95.63;;
46393;Laerm;32099;53.588;10.176;2023-10-19T09:22:07;63.55;56.91;78.91;;
46393;Laerm;32099;53.588;10.176;2023-10-19T09:26:59;69.53;57.05;85.09;;
46393;Laerm;32099;53.588;10.176;2023-10-19T09:29:25;66.59;56.60;85.14;;
46393;Laerm;32099;53.588;10.176;2023-10-19T09:31:51;65.01;57.28;80.63;;
46393;Laerm;32099;53.588;10.176;2023-10-19T09:34:19;65.57;60.85;81.70;;
46393;Laerm;32099;53.588;10.176;2023-10-19T09:36:45;63.32;60.64;67.23;;
46393;Laerm;32099;53.588;10.176;2023-10-19T09:39:13;70.50;59.65;86.44;;
46393;Laerm;32099;53.588;10.176;2023-10-19T09:41:39;67.72;60.22;83.24;;
46393;Laerm;32099;53.588;10.176;2023-10-19T09:44:06;62.15;56.39;66.72;;
46393;Laerm;32099;53.588;10.176;2023-10-19T09:46:37;66.03;59.89;83.10;;
46393;Laerm;32099;53.588;10.176;2023-10-19T09:49:03;67.73;56.83;80.28;;
46393;Laerm;32099;53.588;10.176;2023-10-19T09:51:29;62.06;55.19;76.69;;
46393;Laerm;32099;53.588;10.176;2023-10-19T09:54:00;68.63;57.11;85.43;;
46393;Laerm;32099;53.588;10.176;2023-10-19T09:56:34;68.66;55.68;86.93;;
46393;Laerm;32099;53.588;10.176;2023-10-19T09:59:05;65.45;55.41;86.81;;
46393;Laerm;32099;53.588;10.176;2023-10-19T10:04:33;66.94;54.73;95.34;;
46393;Laerm;32099;53.588;10.176;2023-10-19T10:06:59;62.75;54.99;77.16;;
46393;Laerm;32099;53.588;10.176;2023-10-19T10:09:26;62.86;55.15;83.64;;
46393;Laerm;32099;53.588;10.176;2023-10-19T10:11:54;62.78;54.73;77.79;;
46393;Laerm;32099;53.588;10.176;2023-10-19T10:14:22;56.74;54.50;62.52;;
46393;Laerm;32099;53.588;10.176;2023-10-19T10:16:59;65.78;55.13;83.38;;
46393;Laerm;32099;53.588;10.176;2023-10-19T10:19:25;59.49;54.82;81.97;;
46393;Laerm;32099;53.588;10.176;2023-10-19T10:22:03;66.02;54.71;85.05;;
46393;Laerm;32099;53.588;10.176;2023-10-19T10:24:29;62.96;54.23;78.65;;
46393;Laerm;32099;53.588;10.176;2023-10-19T10:27:01;64.74;53.67;81.98;;
46393;Laerm;32099;53.588;10.176;2023-10-19T10:29:26;65.28;54.08;81.75;;
46393;Laerm;32099;53.588;10.176;2023-10-19T10:31:52;61.37;53.82;81.24;;
46393;Laerm;32099;53.588;10.176;2023-10-19T10:34:42;65.83;54.72;82.15;;
46393;Laerm;32099;53.588;10.176;2023-10-19T10:37:08;63.64;55.07;82.25;;
46393;Laerm;32099;53.588;10.176;2023-10-19T10:39:35;66.91;56.09;87.78;;
46393;Laerm;32099;53.588;10.176;2023-10-19T10:42:06;65.87;54.84;80.17;;
46393;Laerm;32099;53.588;10.176;2023-10-19T10:44:39;58.74;55.11;78.87;;
46393;Laerm;32099;53.588;10.176;2023-10-19T10:47:05;65.48;54.65;81.67;;
46393;Laerm;32099;53.588;10.176;2023-10-19T10:49:31;64.82;54.96;77.39;;
46393;Laerm;32099;53.588;10.176;2023-10-19T10:51:57;62.61;55.49;87.61;;
46393;Laerm;32099;53.588;10.176;2023-10-19T10:54:22;59.87;54.44;79.65;;
46393;Laerm;32099;53.588;10.176;2023-10-19T10:56:49;65.15;54.01;83.92;;
46393;Laerm;32099;53.588;10.176;2023-10-19T10:59:18;61.56;54.21;76.70;;
46393;Laerm;32099;53.588;10.176;2023-10-19T11:01:43;64.94;54.01;80.20;;
46393;Laerm;32099;53.588;10.176;2023-10-19T11:04:10;65.26;53.81;93.03;;
46393;Laerm;32099;53.588;10.176;2023-10-19T11:06:49;67.15;54.75;86.47;;
46393;Laerm;32099;53.588;10.176;2023-10-19T11:09:15;57.14;53.46;77.32;;
46393;Laerm;32099;53.588;10.176;2023-10-19T11:11:41;61.35;53.39;78.60;;
46393;Laerm;32099;53.588;10.176;2023-10-19T11:14:10;63.41;55.70;78.74;;
46393;Laerm;32099;53.588;10.176;2023-10-19T11:16:39;61.80;53.78;79.51;;
46393;Laerm;32099;53.588;10.176;2023-10-19T11:19:05;59.76;53.79;85.64;;
46393;Laerm;32099;53.588;10.176;2023-10-19T11:21:30;64.72;56.36;80.49;;
46393;Laerm;32099;53.588;10.176;2023-10-19T11:23:56;66.35;58.84;93.53;;
46393;Laerm;32099;53.588;10.176;2023-10-19T11:26:23;64.72;59.45;81.67;;
46393;Laerm;32099;53.588;10.176;2023-10-19T11:28:56;58.35;56.19;72.38;;
46393;Laerm;32099;53.588;10.176;2023-10-19T11:31:23;61.17;55.05;79.10;;
46393;Laerm;32099;53.588;10.176;2023-10-19T11:33:53;64.94;54.98;89.37;;
46393;Laerm;32099;53.588;10.176;2023-10-19T11:36:20;61.37;55.39;80.64;;
46393;Laerm;32099;53.588;10.176;2023-10-19T11:38:47;63.59;54.02;80.98;;
46393;Laerm;32099;53.588;10.176;2023-10-19T11:41:13;65.33;55.54;84.15;;
46393;Laerm;32099;53.588;10.176;2023-10-19T11:43:39;63.15;54.30;89.72;;
46393;Laerm;32099;53.588;10.176;2023-10-19T11:46:05;65.43;53.91;83.09;;
46393;Laerm;32099;53.588;10.176;2023-10-19T11:48:32;58.25;53.97;78.52;;
46393;Laerm;32099;53.588;10.176;2023-10-19T11:51:01;65.28;55.08;86.37;;
46393;Laerm;32099;53.588;10.176;2023-10-19T11:53:29;62.04;55.27;82.83;;
46393;Laerm;32099;53.588;10.176;2023-10-19T11:55:55;66.17;55.18;86.57;;
46393;Laerm;32099;53.588;10.176;2023-10-19T11:58:20;61.47;54.88;78.63;;
46393;Laerm;32099;53.588;10.176;2023-10-19T12:00:46;63.99;56.39;86.56;;
46393;Laerm;32099;53.588;10.176;2023-10-19T12:03:12;65.33;56.08;82.77;;
46393;Laerm;32099;53.588;10.176;2023-10-19T12:05:38;62.98;56.00;77.44;;
46393;Laerm;32099;53.588;10.176;2023-10-19T12:08:06;67.23;56.27;85.62;;
46393;Laerm;32099;53.588;10.176;2023-10-19T12:10:32;63.59;57.55;76.04;;
46393;Laerm;32099;53.588;10.176;2023-10-19T12:12:58;65.39;58.90;84.72;;
46393;Laerm;32099;53.588;10.176;2023-10-19T12:15:23;66.44;55.86;84.63;;
46393;Laerm;32099;53.588;10.176;2023-10-19T12:17:49;62.43;54.24;80.06;;
46393;Laerm;32099;53.588;10.176;2023-10-19T12:20:14;66.25;55.21;82.67;;
46393;Laerm;32099;53.588;10.176;2023-10-19T12:22:40;61.29;56.56;82.35;;
46393;Laerm;32099;53.588;10.176;2023-10-19T12:25:09;64.90;54.30;80.86;;
46393;Laerm;32099;53.588;10.176;2023-10-19T12:27:34;65.91;55.20;80.23;;
46393;Laerm;32099;53.588;10.176;2023-10-19T12:30:00;64.94;55.95;82.88;;
46393;Laerm;32099;53.588;10.176;2023-10-19T12:32:25;63.97;55.05;80.77;;
46393;Laerm;32099;53.588;10.176;2023-10-19T12:34:51;59.48;54.89;70.70;;
46393;Laerm;32099;53.588;10.176;2023-10-19T12:37:17;67.94;60.27;84.52;;
46393;Laerm;32099;53.588;10.176;2023-10-19T12:39:42;66.78;59.30;90.53;;
46393;Laerm;32099;53.588;10.176;2023-10-19T12:42:11;65.44;58.19;81.97;;
46393;Laerm;32099;53.588;10.176;2023-10-19T12:44:37;65.21;56.97;81.46;;
46393;Laerm;32099;53.588;10.176;2023-10-19T12:47:02;63.88;55.02;77.15;;
46393;Laerm;32099;53.588;10.176;2023-10-19T12:49:28;60.37;55.15;79.25;;
46393;Laerm;32099;53.588;10.176;2023-10-19T12:51:53;64.62;53.86;79.76;;
46393;Laerm;32099;53.588;10.176;2023-10-19T12:54:19;60.14;53.93;73.21;;
46393;Laerm;32099;53.588;10.176;2023-10-19T12:56:45;61.13;53.68;88.80;;
46393;Laerm;32099;53.588;10.176;2023-10-19T12:59:13;61.36;54.07;77.47;;
46393;Laerm;32099;53.588;10.176;2023-10-19T13:01:39;62.89;54.15;81.22;;
46393;Laerm;32099;53.588;10.176;2023-10-19T13:04:04;66.76;54.85;81.34;;
46393;Laerm;32099;53.588;10.176;2023-10-19T13:06:30;62.51;54.90;80.71;;
46393;Laerm;32099;53.588;10.176;2023-10-19T13:08:56;60.52;55.05;72.07;;
46393;Laerm;32099;53.588;10.176;2023-10-19T13:11:21;62.82;54.79;80.82;;
46393;Laerm;32099;53.588;10.176;2023-10-19T13:13:47;57.90;54.64;64.61;;
46393;Laerm;32099;53.588;10.176;2023-10-19T13:16:15;61.62;53.67;80.41;;
46393;Laerm;32099;53.588;10.176;2023-10-19T13:18:41;66.34;53.52;80.07;;
46393;Laerm;32099;53.588;10.176;2023-10-19T13:21:07;64.40;53.51;80.29;;
46393;Laerm;32099;53.588;10.176;2023-10-19T13:23:33;65.46;53.58;82.84;;
46393;Laerm;32099;53.588;10.176;2023-10-19T13:25:59;68.47;53.70;95.94;;
46393;Laerm;32099;53.588;10.176;2023-10-19T13:28:25;59.80;53.67;76.21;;
46393;Laerm;32099;53.588;10.176;2023-10-19T13:30:52;62.69;53.49;79.83;;
46393;Laerm;32099;53.588;10.176;2023-10-19T13:33:21;66.13;53.52;84.98;;